sensor_id;sensor_type;location;lat;lon;timestamp;pressure;altitude;pressure_sealevel;temperature
44429;BMP180;30134;47.866;-4.222;2023-04-06T00:00:02;101608.00;;;24.20
44429;BMP180;30134;47.866;-4.222;2023-04-06T00:02:30;101605.00;;;24.20
44429;BMP180;30134;47.866;-4.222;2023-04-06T00:04:56;101604.00;;;24.20
44429;BMP180;30134;47.866;-4.222;2023-04-06T00:07:22;101609.00;;;24.20
44429;BMP180;30134;47.866;-4.222;2023-04-06T00:09:48;101614.00;;;24.10
44429;BMP180;30134;47.866;-4.222;2023-04-06T00:12:15;101609.00;;;24.10
44429;BMP180;30134;47.866;-4.222;2023-04-06T00:14:41;101607.00;;;24.20
44429;BMP180;30134;47.866;-4.222;2023-04-06T00:17:07;101617.00;;;24.20
44429;BMP180;30134;47.866;-4.222;2023-04-06T00:19:33;101615.00;;;24.20
44429;BMP180;30134;47.866;-4.222;2023-04-06T00:21:59;101617.00;;;24.20
44429;BMP180;30134;47.866;-4.222;2023-04-06T00:24:28;101621.00;;;24.20
44429;BMP180;30134;47.866;-4.222;2023-04-06T00:27:02;101622.00;;;24.20
44429;BMP180;30134;47.866;-4.222;2023-04-06T00:29:43;101617.00;;;24.10
44429;BMP180;30134;47.866;-4.222;2023-04-06T00:32:09;101619.00;;;24.10
44429;BMP180;30134;47.866;-4.222;2023-04-06T00:34:36;101613.00;;;24.10
44429;BMP180;30134;47.866;-4.222;2023-04-06T00:37:02;101615.00;;;24.20
44429;BMP180;30134;47.866;-4.222;2023-04-06T00:39:28;101608.00;;;24.20
44429;BMP180;30134;47.866;-4.222;2023-04-06T00:41:55;101605.00;;;24.20
44429;BMP180;30134;47.866;-4.222;2023-04-06T00:44:22;101591.00;;;24.10
44429;BMP180;30134;47.866;-4.222;2023-04-06T00:46:48;101587.00;;;24.10
44429;BMP180;30134;47.866;-4.222;2023-04-06T00:49:14;101586.00;;;24.20
44429;BMP180;30134;47.866;-4.222;2023-04-06T00:51:41;101571.00;;;24.20
44429;BMP180;30134;47.866;-4.222;2023-04-06T00:54:07;101569.00;;;24.20
44429;BMP180;30134;47.866;-4.222;2023-04-06T00:56:33;101568.00;;;24.20
44429;BMP180;30134;47.866;-4.222;2023-04-06T00:58:59;101563.00;;;24.20
44429;BMP180;30134;47.866;-4.222;2023-04-06T01:01:25;101560.00;;;24.20
44429;BMP180;30134;47.866;-4.222;2023-04-06T01:03:51;101561.00;;;24.10
44429;BMP180;30134;47.866;-4.222;2023-04-06T01:06:24;101556.00;;;24.20
44429;BMP180;30134;47.866;-4.222;2023-04-06T01:08:50;101560.00;;;24.20
44429;BMP180;30134;47.866;-4.222;2023-04-06T01:11:17;101567.00;;;24.20
44429;BMP180;30134;47.866;-4.222;2023-04-06T01:13:46;101561.00;;;24.20
44429;BMP180;30134;47.866;-4.222;2023-04-06T01:16:13;101551.00;;;24.20
44429;BMP180;30134;47.866;-4.222;2023-04-06T01:18:39;101545.00;;;24.20
44429;BMP180;30134;47.866;-4.222;2023-04-06T01:21:05;101544.00;;;24.20
44429;BMP180;30134;47.866;-4.222;2023-04-06T01:23:31;101540.00;;;24.20
44429;BMP180;30134;47.866;-4.222;2023-04-06T01:25:57;101544.00;;;24.10
44429;BMP180;30134;47.866;-4.222;2023-04-06T01:28:23;101550.00;;;24.20
44429;BMP180;30134;47.866;-4.222;2023-04-06T01:30:49;101549.00;;;24.20
44429;BMP180;30134;47.866;-4.222;2023-04-06T01:33:15;101544.00;;;24.20
44429;BMP180;30134;47.866;-4.222;2023-04-06T01:35:41;101547.00;;;24.20
44429;BMP180;30134;47.866;-4.222;2023-04-06T01:38:07;101545.00;;;24.20
44429;BMP180;30134;47.866;-4.222;2023-04-06T01:40:33;101547.00;;;24.20
44429;BMP180;30134;47.866;-4.222;2023-04-06T01:43:00;101538.00;;;24.20
44429;BMP180;30134;47.866;-4.222;2023-04-06T01:45:26;101546.00;;;24.10
44429;BMP180;30134;47.866;-4.222;2023-04-06T01:47:52;101542.00;;;24.20
44429;BMP180;30134;47.866;-4.222;2023-04-06T01:50:18;101535.00;;;24.20
44429;BMP180;30134;47.866;-4.222;2023-04-06T01:52:44;101532.00;;;24.20
44429;BMP180;30134;47.866;-4.222;2023-04-06T01:55:10;101529.00;;;24.20
44429;BMP180;30134;47.866;-4.222;2023-04-06T01:57:36;101534.00;;;24.20
44429;BMP180;30134;47.866;-4.222;2023-04-06T02:00:02;101538.00;;;24.20
44429;BMP180;30134;47.866;-4.222;2023-04-06T02:02:28;101531.00;;;24.20
44429;BMP180;30134;47.866;-4.222;2023-04-06T02:04:54;101532.00;;;24.20
44429;BMP180;30134;47.866;-4.222;2023-04-06T02:07:20;101531.00;;;24.20
44429;BMP180;30134;47.866;-4.222;2023-04-06T02:09:46;101532.00;;;24.20
44429;BMP180;30134;47.866;-4.222;2023-04-06T02:12:12;101531.00;;;24.20
44429;BMP180;30134;47.866;-4.222;2023-04-06T02:14:38;101528.00;;;24.20
44429;BMP180;30134;47.866;-4.222;2023-04-06T02:17:05;101529.00;;;24.20
44429;BMP180;30134;47.866;-4.222;2023-04-06T02:19:31;101533.00;;;24.20
44429;BMP180;30134;47.866;-4.222;2023-04-06T02:21:57;101524.00;;;24.20
44429;BMP180;30134;47.866;-4.222;2023-04-06T02:24:23;101528.00;;;24.20
44429;BMP180;30134;47.866;-4.222;2023-04-06T02:26:49;101527.00;;;24.20
44429;BMP180;30134;47.866;-4.222;2023-04-06T02:29:15;101527.00;;;24.20
44429;BMP180;30134;47.866;-4.222;2023-04-06T02:31:41;101533.00;;;24.30
44429;BMP180;30134;47.866;-4.222;2023-04-06T02:34:08;101527.00;;;24.20
44429;BMP180;30134;47.866;-4.222;2023-04-06T02:36:36;101524.00;;;24.20
44429;BMP180;30134;47.866;-4.222;2023-04-06T02:39:02;101529.00;;;24.20
44429;BMP180;30134;47.866;-4.222;2023-04-06T02:41:29;101529.00;;;24.20
44429;BMP180;30134;47.866;-4.222;2023-04-06T02:43:55;101524.00;;;24.20
44429;BMP180;30134;47.866;-4.222;2023-04-06T02:46:24;101536.00;;;24.20
44429;BMP180;30134;47.866;-4.222;2023-04-06T02:48:50;101530.00;;;24.20
44429;BMP180;30134;47.866;-4.222;2023-04-06T02:51:16;101535.00;;;24.20
44429;BMP180;30134;47.866;-4.222;2023-04-06T02:53:42;101533.00;;;24.10
44429;BMP180;30134;47.866;-4.222;2023-04-06T02:56:08;101525.00;;;24.20
44429;BMP180;30134;47.866;-4.222;2023-04-06T02:58:34;101522.00;;;24.20
44429;BMP180;30134;47.866;-4.222;2023-04-06T03:01:00;101528.00;;;24.20
44429;BMP180;30134;47.866;-4.222;2023-04-06T03:03:26;101534.00;;;24.20
44429;BMP180;30134;47.866;-4.222;2023-04-06T03:05:52;101534.00;;;24.20
44429;BMP180;30134;47.866;-4.222;2023-04-06T03:08:20;101527.00;;;24.20
44429;BMP180;30134;47.866;-4.222;2023-04-06T03:10:46;101525.00;;;24.20
44429;BMP180;30134;47.866;-4.222;2023-04-06T03:13:12;101520.00;;;24.10
44429;BMP180;30134;47.866;-4.222;2023-04-06T03:15:38;101513.00;;;24.10
44429;BMP180;30134;47.866;-4.222;2023-04-06T03:18:04;101515.00;;;24.20
44429;BMP180;30134;47.866;-4.222;2023-04-06T03:20:30;101506.00;;;24.10
44429;BMP180;30134;47.866;-4.222;2023-04-06T03:22:56;101506.00;;;24.10
44429;BMP180;30134;47.866;-4.222;2023-04-06T03:25:22;101505.00;;;24.10
44429;BMP180;30134;47.866;-4.222;2023-04-06T03:27:48;101505.00;;;24.00
44429;BMP180;30134;47.866;-4.222;2023-04-06T03:30:14;101501.00;;;24.00
44429;BMP180;30134;47.866;-4.222;2023-04-06T03:32:45;101499.00;;;24.00
44429;BMP180;30134;47.866;-4.222;2023-04-06T03:35:11;101503.00;;;24.00
44429;BMP180;30134;47.866;-4.222;2023-04-06T03:37:37;101498.00;;;24.00
44429;BMP180;30134;47.866;-4.222;2023-04-06T03:40:07;101505.00;;;24.00
44429;BMP180;30134;47.866;-4.222;2023-04-06T03:42:33;101504.00;;;24.00
44429;BMP180;30134;47.866;-4.222;2023-04-06T03:44:59;101496.00;;;24.00
44429;BMP180;30134;47.866;-4.222;2023-04-06T03:47:25;101500.00;;;24.00
44429;BMP180;30134;47.866;-4.222;2023-04-06T03:49:51;101494.00;;;24.00
44429;BMP180;30134;47.866;-4.222;2023-04-06T03:52:17;101494.00;;;24.00
44429;BMP180;30134;47.866;-4.222;2023-04-06T03:54:43;101493.00;;;24.00
44429;BMP180;30134;47.866;-4.222;2023-04-06T03:57:09;101490.00;;;24.00
44429;BMP180;30134;47.866;-4.222;2023-04-06T03:59:35;101494.00;;;24.00
44429;BMP180;30134;47.866;-4.222;2023-04-06T04:02:01;101489.00;;;24.00
44429;BMP180;30134;47.866;-4.222;2023-04-06T04:04:27;101492.00;;;24.00
44429;BMP180;30134;47.866;-4.222;2023-04-06T04:06:53;101487.00;;;24.00
44429;BMP180;30134;47.866;-4.222;2023-04-06T04:09:19;101484.00;;;24.00
44429;BMP180;30134;47.866;-4.222;2023-04-06T04:11:45;101474.00;;;24.00
44429;BMP180;30134;47.866;-4.222;2023-04-06T04:14:13;101480.00;;;24.00
44429;BMP180;30134;47.866;-4.222;2023-04-06T04:16:42;101472.00;;;23.90
44429;BMP180;30134;47.866;-4.222;2023-04-06T04:19:08;101466.00;;;24.00
44429;BMP180;30134;47.866;-4.222;2023-04-06T04:21:42;101466.00;;;23.90
44429;BMP180;30134;47.866;-4.222;2023-04-06T04:24:09;101461.00;;;23.90
44429;BMP180;30134;47.866;-4.222;2023-04-06T04:26:35;101456.00;;;23.90
44429;BMP180;30134;47.866;-4.222;2023-04-06T04:29:01;101451.00;;;23.90
44429;BMP180;30134;47.866;-4.222;2023-04-06T04:31:27;101443.00;;;23.90
44429;BMP180;30134;47.866;-4.222;2023-04-06T04:34:00;101443.00;;;23.90
44429;BMP180;30134;47.866;-4.222;2023-04-06T04:36:26;101432.00;;;23.90
44429;BMP180;30134;47.866;-4.222;2023-04-06T04:38:52;101423.00;;;23.90
44429;BMP180;30134;47.866;-4.222;2023-04-06T04:41:18;101419.00;;;23.90
44429;BMP180;30134;47.866;-4.222;2023-04-06T04:43:44;101426.00;;;23.90
44429;BMP180;30134;47.866;-4.222;2023-04-06T04:46:11;101422.00;;;23.90
44429;BMP180;30134;47.866;-4.222;2023-04-06T04:48:37;101423.00;;;23.90
44429;BMP180;30134;47.866;-4.222;2023-04-06T04:51:04;101416.00;;;23.90
44429;BMP180;30134;47.866;-4.222;2023-04-06T04:53:31;101418.00;;;23.90
44429;BMP180;30134;47.866;-4.222;2023-04-06T04:55:57;101415.00;;;23.90
44429;BMP180;30134;47.866;-4.222;2023-04-06T04:58:23;101418.00;;;23.90
44429;BMP180;30134;47.866;-4.222;2023-04-06T05:00:49;101432.00;;;23.90
44429;BMP180;30134;47.866;-4.222;2023-04-06T05:03:23;101426.00;;;23.90
44429;BMP180;30134;47.866;-4.222;2023-04-06T05:05:49;101429.00;;;23.90
44429;BMP180;30134;47.866;-4.222;2023-04-06T05:08:16;101436.00;;;23.90
44429;BMP180;30134;47.866;-4.222;2023-04-06T05:10:42;101432.00;;;23.90
44429;BMP180;30134;47.866;-4.222;2023-04-06T05:13:10;101433.00;;;23.90
44429;BMP180;30134;47.866;-4.222;2023-04-06T05:15:36;101440.00;;;23.90
44429;BMP180;30134;47.866;-4.222;2023-04-06T05:18:07;101437.00;;;23.90
44429;BMP180;30134;47.866;-4.222;2023-04-06T05:20:34;101443.00;;;23.90
44429;BMP180;30134;47.866;-4.222;2023-04-06T05:23:00;101439.00;;;23.90
44429;BMP180;30134;47.866;-4.222;2023-04-06T05:25:29;101438.00;;;23.90
44429;BMP180;30134;47.866;-4.222;2023-04-06T05:27:56;101447.00;;;23.90
44429;BMP180;30134;47.866;-4.222;2023-04-06T05:30:22;101438.00;;;23.90
44429;BMP180;30134;47.866;-4.222;2023-04-06T05:32:48;101443.00;;;23.90
44429;BMP180;30134;47.866;-4.222;2023-04-06T05:35:14;101438.00;;;23.80
44429;BMP180;30134;47.866;-4.222;2023-04-06T05:37:40;101440.00;;;23.90
44429;BMP180;30134;47.866;-4.222;2023-04-06T05:40:07;101448.00;;;23.90
44429;BMP180;30134;47.866;-4.222;2023-04-06T05:42:43;101455.00;;;23.90
44429;BMP180;30134;47.866;-4.222;2023-04-06T05:45:11;101454.00;;;23.80
44429;BMP180;30134;47.866;-4.222;2023-04-06T05:47:43;101461.00;;;23.80
44429;BMP180;30134;47.866;-4.222;2023-04-06T05:50:14;101460.00;;;23.90
44429;BMP180;30134;47.866;-4.222;2023-04-06T05:52:41;101457.00;;;23.90
44429;BMP180;30134;47.866;-4.222;2023-04-06T05:55:09;101468.00;;;23.80
44429;BMP180;30134;47.866;-4.222;2023-04-06T05:57:36;101469.00;;;23.80
44429;BMP180;30134;47.866;-4.222;2023-04-06T06:00:03;101470.00;;;23.80
44429;BMP180;30134;47.866;-4.222;2023-04-06T06:02:31;101471.00;;;23.80
44429;BMP180;30134;47.866;-4.222;2023-04-06T06:04:57;101472.00;;;23.90
44429;BMP180;30134;47.866;-4.222;2023-04-06T06:07:24;101463.00;;;23.80
44429;BMP180;30134;47.866;-4.222;2023-04-06T06:09:50;101474.00;;;23.80
44429;BMP180;30134;47.866;-4.222;2023-04-06T06:12:16;101472.00;;;23.80
44429;BMP180;30134;47.866;-4.222;2023-04-06T06:14:42;101474.00;;;23.80
44429;BMP180;30134;47.866;-4.222;2023-04-06T06:17:08;101473.00;;;23.80
44429;BMP180;30134;47.866;-4.222;2023-04-06T06:19:35;101477.00;;;23.80
44429;BMP180;30134;47.866;-4.222;2023-04-06T06:22:00;101477.00;;;23.80
44429;BMP180;30134;47.866;-4.222;2023-04-06T06:24:28;101487.00;;;23.80
44429;BMP180;30134;47.866;-4.222;2023-04-06T06:26:56;101480.00;;;23.80
44429;BMP180;30134;47.866;-4.222;2023-04-06T06:29:22;101484.00;;;23.80
44429;BMP180;30134;47.866;-4.222;2023-04-06T06:31:50;101485.00;;;23.80
44429;BMP180;30134;47.866;-4.222;2023-04-06T06:34:16;101480.00;;;23.80
44429;BMP180;30134;47.866;-4.222;2023-04-06T06:36:42;101482.00;;;23.80
44429;BMP180;30134;47.866;-4.222;2023-04-06T06:39:08;101486.00;;;23.80
44429;BMP180;30134;47.866;-4.222;2023-04-06T06:41:34;101488.00;;;23.80
44429;BMP180;30134;47.866;-4.222;2023-04-06T06:44:00;101494.00;;;23.80
44429;BMP180;30134;47.866;-4.222;2023-04-06T06:46:26;101489.00;;;23.80
44429;BMP180;30134;47.866;-4.222;2023-04-06T06:48:52;101490.00;;;23.80
44429;BMP180;30134;47.866;-4.222;2023-04-06T06:51:19;101494.00;;;23.80
44429;BMP180;30134;47.866;-4.222;2023-04-06T06:53:45;101491.00;;;23.80
44429;BMP180;30134;47.866;-4.222;2023-04-06T06:56:14;101494.00;;;23.80
44429;BMP180;30134;47.866;-4.222;2023-04-06T06:58:40;101500.00;;;23.80
44429;BMP180;30134;47.866;-4.222;2023-04-06T07:01:06;101492.00;;;23.80
44429;BMP180;30134;47.866;-4.222;2023-04-06T07:03:39;101495.00;;;23.80
44429;BMP180;30134;47.866;-4.222;2023-04-06T07:06:05;101491.00;;;23.80
44429;BMP180;30134;47.866;-4.222;2023-04-06T07:08:31;101488.00;;;23.80
44429;BMP180;30134;47.866;-4.222;2023-04-06T07:10:57;101485.00;;;23.80
44429;BMP180;30134;47.866;-4.222;2023-04-06T07:13:23;101489.00;;;23.80
44429;BMP180;30134;47.866;-4.222;2023-04-06T07:15:50;101492.00;;;23.80
44429;BMP180;30134;47.866;-4.222;2023-04-06T07:18:20;101490.00;;;23.80
44429;BMP180;30134;47.866;-4.222;2023-04-06T07:20:46;101495.00;;;23.80
44429;BMP180;30134;47.866;-4.222;2023-04-06T07:23:12;101495.00;;;23.80
44429;BMP180;30134;47.866;-4.222;2023-04-06T07:25:38;101499.00;;;23.80
44429;BMP180;30134;47.866;-4.222;2023-04-06T07:28:07;101503.00;;;23.80
44429;BMP180;30134;47.866;-4.222;2023-04-06T07:30:33;101513.00;;;23.80
44429;BMP180;30134;47.866;-4.222;2023-04-06T07:33:02;101512.00;;;23.80
44429;BMP180;30134;47.866;-4.222;2023-04-06T07:35:28;101509.00;;;23.80
44429;BMP180;30134;47.866;-4.222;2023-04-06T07:37:56;101506.00;;;23.80
44429;BMP180;30134;47.866;-4.222;2023-04-06T07:40:22;101510.00;;;23.80
44429;BMP180;30134;47.866;-4.222;2023-04-06T07:42:48;101511.00;;;23.80
44429;BMP180;30134;47.866;-4.222;2023-04-06T07:45:14;101517.00;;;23.80
44429;BMP180;30134;47.866;-4.222;2023-04-06T07:47:42;101519.00;;;23.80
44429;BMP180;30134;47.866;-4.222;2023-04-06T07:50:11;101516.00;;;23.80
44429;BMP180;30134;47.866;-4.222;2023-04-06T07:52:39;101525.00;;;23.80
44429;BMP180;30134;47.866;-4.222;2023-04-06T07:55:06;101538.00;;;23.80
44429;BMP180;30134;47.866;-4.222;2023-04-06T07:57:32;101532.00;;;23.80
44429;BMP180;30134;47.866;-4.222;2023-04-06T07:59:58;101535.00;;;23.80
44429;BMP180;30134;47.866;-4.222;2023-04-06T08:02:24;101536.00;;;23.80
44429;BMP180;30134;47.866;-4.222;2023-04-06T08:04:50;101530.00;;;23.80
44429;BMP180;30134;47.866;-4.222;2023-04-06T08:07:16;101532.00;;;23.80
44429;BMP180;30134;47.866;-4.222;2023-04-06T08:09:42;101534.00;;;23.80
44429;BMP180;30134;47.866;-4.222;2023-04-06T08:12:08;101536.00;;;23.80
44429;BMP180;30134;47.866;-4.222;2023-04-06T08:14:34;101535.00;;;23.80
44429;BMP180;30134;47.866;-4.222;2023-04-06T08:17:01;101538.00;;;23.80
44429;BMP180;30134;47.866;-4.222;2023-04-06T08:19:27;101543.00;;;23.80
44429;BMP180;30134;47.866;-4.222;2023-04-06T08:21:53;101551.00;;;23.80
44429;BMP180;30134;47.866;-4.222;2023-04-06T08:24:19;101558.00;;;23.80
44429;BMP180;30134;47.866;-4.222;2023-04-06T08:26:45;101556.00;;;23.80
44429;BMP180;30134;47.866;-4.222;2023-04-06T08:29:11;101554.00;;;23.80
44429;BMP180;30134;47.866;-4.222;2023-04-06T08:31:37;101559.00;;;23.80
44429;BMP180;30134;47.866;-4.222;2023-04-06T08:34:04;101566.00;;;23.80
44429;BMP180;30134;47.866;-4.222;2023-04-06T08:36:31;101572.00;;;23.80
44429;BMP180;30134;47.866;-4.222;2023-04-06T08:38:58;101569.00;;;23.80
44429;BMP180;30134;47.866;-4.222;2023-04-06T08:41:24;101574.00;;;23.80
44429;BMP180;30134;47.866;-4.222;2023-04-06T08:44:01;101575.00;;;23.80
44429;BMP180;30134;47.866;-4.222;2023-04-06T08:46:29;101573.00;;;23.80
44429;BMP180;30134;47.866;-4.222;2023-04-06T08:49:01;101577.00;;;23.80
44429;BMP180;30134;47.866;-4.222;2023-04-06T08:51:28;101580.00;;;23.80
44429;BMP180;30134;47.866;-4.222;2023-04-06T08:53:58;101583.00;;;23.80
44429;BMP180;30134;47.866;-4.222;2023-04-06T08:56:28;101578.00;;;23.80
44429;BMP180;30134;47.866;-4.222;2023-04-06T08:58:55;101584.00;;;23.80
44429;BMP180;30134;47.866;-4.222;2023-04-06T09:01:27;101578.00;;;23.80
44429;BMP180;30134;47.866;-4.222;2023-04-06T09:03:56;101570.00;;;23.80
44429;BMP180;30134;47.866;-4.222;2023-04-06T09:06:22;101575.00;;;23.80
44429;BMP180;30134;47.866;-4.222;2023-04-06T09:08:48;101580.00;;;23.80
44429;BMP180;30134;47.866;-4.222;2023-04-06T09:11:15;101585.00;;;23.70
44429;BMP180;30134;47.866;-4.222;2023-04-06T09:16:12;101586.00;;;23.90
44429;BMP180;30134;47.866;-4.222;2023-04-06T09:18:38;101598.00;;;23.90
44429;BMP180;30134;47.866;-4.222;2023-04-06T09:21:06;101598.00;;;23.90
44429;BMP180;30134;47.866;-4.222;2023-04-06T09:23:33;101596.00;;;23.90
44429;BMP180;30134;47.866;-4.222;2023-04-06T09:26:17;101599.00;;;23.90
44429;BMP180;30134;47.866;-4.222;2023-04-06T09:28:53;101595.00;;;23.90
44429;BMP180;30134;47.866;-4.222;2023-04-06T09:31:31;101593.00;;;23.90
44429;BMP180;30134;47.866;-4.222;2023-04-06T09:34:01;101612.00;;;23.90
44429;BMP180;30134;47.866;-4.222;2023-04-06T09:36:35;101609.00;;;23.80
44429;BMP180;30134;47.866;-4.222;2023-04-06T09:39:06;101607.00;;;23.80
44429;BMP180;30134;47.866;-4.222;2023-04-06T09:41:35;101616.00;;;23.80
44429;BMP180;30134;47.866;-4.222;2023-04-06T09:46:43;101617.00;;;23.80
44429;BMP180;30134;47.866;-4.222;2023-04-06T09:49:10;101618.00;;;23.90
44429;BMP180;30134;47.866;-4.222;2023-04-06T09:51:52;101621.00;;;23.90
44429;BMP180;30134;47.866;-4.222;2023-04-06T09:54:22;101620.00;;;23.90
44429;BMP180;30134;47.866;-4.222;2023-04-06T09:57:07;101619.00;;;24.00
44429;BMP180;30134;47.866;-4.222;2023-04-06T10:02:51;101621.00;;;23.90
44429;BMP180;30134;47.866;-4.222;2023-04-06T10:08:09;101615.00;;;24.00
44429;BMP180;30134;47.866;-4.222;2023-04-06T10:10:36;101616.00;;;24.00
44429;BMP180;30134;47.866;-4.222;2023-04-06T10:13:04;101616.00;;;24.00
44429;BMP180;30134;47.866;-4.222;2023-04-06T10:15:31;101604.00;;;24.00
44429;BMP180;30134;47.866;-4.222;2023-04-06T10:18:01;101612.00;;;24.00
44429;BMP180;30134;47.866;-4.222;2023-04-06T10:21:01;101609.00;;;24.00
44429;BMP180;30134;47.866;-4.222;2023-04-06T10:24:06;101607.00;;;24.00
44429;BMP180;30134;47.866;-4.222;2023-04-06T10:26:30;101607.00;;;24.00
44429;BMP180;30134;47.866;-4.222;2023-04-06T10:29:05;101606.00;;;24.00
44429;BMP180;30134;47.866;-4.222;2023-04-06T10:31:31;101612.00;;;24.00
44429;BMP180;30134;47.866;-4.222;2023-04-06T10:34:02;101613.00;;;24.00
44429;BMP180;30134;47.866;-4.222;2023-04-06T10:36:32;101601.00;;;24.00
44429;BMP180;30134;47.866;-4.222;2023-04-06T10:39:02;101613.00;;;24.10
44429;BMP180;30134;47.866;-4.222;2023-04-06T10:41:34;101605.00;;;24.10
44429;BMP180;30134;47.866;-4.222;2023-04-06T10:44:01;101608.00;;;24.10
44429;BMP180;30134;47.866;-4.222;2023-04-06T10:46:32;101612.00;;;24.10
44429;BMP180;30134;47.866;-4.222;2023-04-06T10:49:12;101615.00;;;24.10
44429;BMP180;30134;47.866;-4.222;2023-04-06T10:51:38;101616.00;;;24.00
44429;BMP180;30134;47.866;-4.222;2023-04-06T10:54:06;101622.00;;;24.10
44429;BMP180;30134;47.866;-4.222;2023-04-06T10:56:33;101617.00;;;24.10
44429;BMP180;30134;47.866;-4.222;2023-04-06T10:59:02;101621.00;;;24.10
44429;BMP180;30134;47.866;-4.222;2023-04-06T11:01:28;101621.00;;;24.10
44429;BMP180;30134;47.866;-4.222;2023-04-06T11:03:56;101613.00;;;24.20
44429;BMP180;30134;47.866;-4.222;2023-04-06T11:06:28;101617.00;;;24.10
44429;BMP180;30134;47.866;-4.222;2023-04-06T11:08:56;101616.00;;;24.20
44429;BMP180;30134;47.866;-4.222;2023-04-06T11:11:24;101621.00;;;24.20
44429;BMP180;30134;47.866;-4.222;2023-04-06T11:13:57;101616.00;;;24.20
44429;BMP180;30134;47.866;-4.222;2023-04-06T11:16:32;101625.00;;;22.70
44429;BMP180;30134;47.866;-4.222;2023-04-06T11:19:01;101619.00;;;23.60
44429;BMP180;30134;47.866;-4.222;2023-04-06T11:21:46;101624.00;;;23.90
44429;BMP180;30134;47.866;-4.222;2023-04-06T11:24:24;101619.00;;;23.90
44429;BMP180;30134;47.866;-4.222;2023-04-06T11:26:57;101619.00;;;23.90
44429;BMP180;30134;47.866;-4.222;2023-04-06T11:29:27;101633.00;;;24.00
44429;BMP180;30134;47.866;-4.222;2023-04-06T11:32:05;101621.00;;;24.00
44429;BMP180;30134;47.866;-4.222;2023-04-06T11:34:37;101630.00;;;24.00
44429;BMP180;30134;47.866;-4.222;2023-04-06T11:37:13;101634.00;;;24.00
44429;BMP180;30134;47.866;-4.222;2023-04-06T11:39:53;101639.00;;;24.00
44429;BMP180;30134;47.866;-4.222;2023-04-06T11:42:29;101644.00;;;24.00
44429;BMP180;30134;47.866;-4.222;2023-04-06T11:44:57;101653.00;;;24.00
44429;BMP180;30134;47.866;-4.222;2023-04-06T11:47:34;101654.00;;;24.00
44429;BMP180;30134;47.866;-4.222;2023-04-06T11:50:12;101640.00;;;24.10
44429;BMP180;30134;47.866;-4.222;2023-04-06T11:52:40;101643.00;;;24.10
44429;BMP180;30134;47.866;-4.222;2023-04-06T11:55:18;101650.00;;;24.10
44429;BMP180;30134;47.866;-4.222;2023-04-06T11:57:44;101647.00;;;24.00
44429;BMP180;30134;47.866;-4.222;2023-04-06T12:00:15;101638.00;;;24.10
44429;BMP180;30134;47.866;-4.222;2023-04-06T12:02:46;101639.00;;;24.00
44429;BMP180;30134;47.866;-4.222;2023-04-06T12:05:13;101632.00;;;24.10
44429;BMP180;30134;47.866;-4.222;2023-04-06T12:07:39;101634.00;;;24.10
44429;BMP180;30134;47.866;-4.222;2023-04-06T12:10:05;101633.00;;;24.10
44429;BMP180;30134;47.866;-4.222;2023-04-06T12:12:32;101624.00;;;24.10
44429;BMP180;30134;47.866;-4.222;2023-04-06T12:14:58;101630.00;;;24.10
44429;BMP180;30134;47.866;-4.222;2023-04-06T12:17:25;101626.00;;;24.10
44429;BMP180;30134;47.866;-4.222;2023-04-06T12:19:51;101629.00;;;24.10
44429;BMP180;30134;47.866;-4.222;2023-04-06T12:22:17;101620.00;;;24.10
44429;BMP180;30134;47.866;-4.222;2023-04-06T12:24:43;101627.00;;;24.10
44429;BMP180;30134;47.866;-4.222;2023-04-06T12:27:10;101627.00;;;24.10
44429;BMP180;30134;47.866;-4.222;2023-04-06T12:29:38;101631.00;;;24.10
44429;BMP180;30134;47.866;-4.222;2023-04-06T12:32:04;101625.00;;;24.10
44429;BMP180;30134;47.866;-4.222;2023-04-06T12:34:31;101632.00;;;24.20
44429;BMP180;30134;47.866;-4.222;2023-04-06T12:36:57;101630.00;;;24.10
44429;BMP180;30134;47.866;-4.222;2023-04-06T12:39:23;101629.00;;;24.20
44429;BMP180;30134;47.866;-4.222;2023-04-06T12:41:49;101635.00;;;24.10
44429;BMP180;30134;47.866;-4.222;2023-04-06T12:44:15;101632.00;;;24.10
44429;BMP180;30134;47.866;-4.222;2023-04-06T12:46:43;101629.00;;;24.10
44429;BMP180;30134;47.866;-4.222;2023-04-06T12:49:09;101631.00;;;24.10
44429;BMP180;30134;47.866;-4.222;2023-04-06T12:51:35;101631.00;;;24.10
44429;BMP180;30134;47.866;-4.222;2023-04-06T12:54:01;101633.00;;;24.10
44429;BMP180;30134;47.866;-4.222;2023-04-06T12:56:27;101635.00;;;24.10
44429;BMP180;30134;47.866;-4.222;2023-04-06T12:58:54;101642.00;;;24.10
44429;BMP180;30134;47.866;-4.222;2023-04-06T13:01:20;101632.00;;;24.10
44429;BMP180;30134;47.866;-4.222;2023-04-06T13:03:47;101635.00;;;24.20
44429;BMP180;30134;47.866;-4.222;2023-04-06T13:06:13;101629.00;;;24.10
44429;BMP180;30134;47.866;-4.222;2023-04-06T13:08:41;101618.00;;;24.10
44429;BMP180;30134;47.866;-4.222;2023-04-06T13:11:07;101622.00;;;24.10
44429;BMP180;30134;47.866;-4.222;2023-04-06T13:13:35;101628.00;;;24.10
44429;BMP180;30134;47.866;-4.222;2023-04-06T13:16:04;101628.00;;;24.10
44429;BMP180;30134;47.866;-4.222;2023-04-06T13:18:31;101631.00;;;24.20
44429;BMP180;30134;47.866;-4.222;2023-04-06T13:20:58;101629.00;;;24.20
44429;BMP180;30134;47.866;-4.222;2023-04-06T13:23:26;101630.00;;;24.20
44429;BMP180;30134;47.866;-4.222;2023-04-06T13:26:03;101633.00;;;24.20
44429;BMP180;30134;47.866;-4.222;2023-04-06T13:28:31;101640.00;;;24.20
44429;BMP180;30134;47.866;-4.222;2023-04-06T13:31:02;101634.00;;;24.20
44429;BMP180;30134;47.866;-4.222;2023-04-06T13:33:31;101639.00;;;24.20
44429;BMP180;30134;47.866;-4.222;2023-04-06T13:35:57;101637.00;;;24.20
44429;BMP180;30134;47.866;-4.222;2023-04-06T13:38:24;101638.00;;;24.20
44429;BMP180;30134;47.866;-4.222;2023-04-06T13:40:50;101636.00;;;24.20
44429;BMP180;30134;47.866;-4.222;2023-04-06T13:43:16;101621.00;;;24.20
44429;BMP180;30134;47.866;-4.222;2023-04-06T13:45:50;101629.00;;;24.20
44429;BMP180;30134;47.866;-4.222;2023-04-06T13:48:19;101634.00;;;24.20
44429;BMP180;30134;47.866;-4.222;2023-04-06T13:50:45;101630.00;;;24.20
44429;BMP180;30134;47.866;-4.222;2023-04-06T13:53:12;101623.00;;;24.20
44429;BMP180;30134;47.866;-4.222;2023-04-06T13:55:38;101631.00;;;24.30
44429;BMP180;30134;47.866;-4.222;2023-04-06T13:58:04;101623.00;;;24.20